Cbeh — BOHM — position and weather

sailwx.info

Track history (hours):
 
Tides and Currents Weather Stations Pressure Air Temp Water Temp Dewpoint Dewpoint Depression Visibility Wind Speed Wind Dir Waves Ship Positions

Cbeh

Last reported at 2018-Feb-14 19:15 UTC. Time now 2018-Feb-25 09:57 UTC.
Position N 23°18' E 117°29'.
Warning: this ship's position is 10 days out of date.

Length 222 m; draft 5.4 m.

Type: Wing in ground effect craft. MMSI: 412228000.

Date/timePositionNaut miles runAvg speedWind from/ knotsBaromVisibWave heightAir tempDewpointWater temp
2018-Feb-14 19:15N 23°18' E 117°29'518.6
2018-Feb-14 19:00N 23°21' E 117°33'919.1
2018-Feb-14 18:30N 23°27' E 117°40'1019.2
2018-Feb-14 18:00N 23°34' E 117°48'918.9
2018-Feb-14 17:30N 23°40' E 117°55'1119.0
2018-Feb-14 16:56N 23°47' E 118°04'819.0
2018-Feb-14 16:30N 23°53' E 118°11'918.7
2018-Feb-14 16:00N 23°59' E 118°18'918.5
2018-Feb-14 15:30N 24°05' E 118°26'918.5
2018-Feb-14 15:00N 24°11' E 118°34'918.3
2018-Feb-14 14:30N 24°17' E 118°42'917.9
2018-Feb-14 14:00N 24°23' E 118°49'918.1
2018-Feb-14 13:30N 24°29' E 118°56'918.1
2018-Feb-14 13:00N 24°35' E 119°04'918.1
2018-Feb-14 12:30N 24°41' E 119°12'4317.5
2018-Feb-14 10:04N 25°09' E 119°46'217.3
2018-Feb-14 09:56N 25°11' E 119°48'917.2
2018-Feb-14 09:25N 25°17' E 119°56'717.0
2018-Feb-14 09:00N 25°23' E 119°58'817.3
2018-Feb-14 08:30N 25°31' E 120°01'917.3
2018-Feb-14 08:00N 25°39' E 120°06'1017.8
2018-Feb-14 07:25N 25°48' E 120°12'918.4
2018-Feb-14 06:57N 25°55' E 120°17'818.1
2018-Feb-14 06:30N 26°02' E 120°22'70516.7
2018-Feb-12 12:15N 37°42' E 122°04'519.2
2018-Feb-12 12:00N 37°43' E 121°59'918.9
2018-Feb-12 11:30N 37°47' E 121°47'918.9
2018-Feb-12 11:00N 37°49' E 121°36'1019.0
2018-Feb-12 10:30N 37°52' E 121°24'1019.0
2018-Feb-12 09:59N 37°55' E 121°12'  
2018-Feb-08 15:30N 37°55' E 121°20'917.5
2018-Feb-08 15:00N 37°53' E 121°31'917.5
2018-Feb-08 14:30N 37°51' E 121°42'917.5
2018-Feb-08 14:00N 37°48' E 121°52'39313.7
2018-Feb-07 09:25N 31°15' E 121°55'611.9
2018-Feb-07 08:56N 31°17' E 121°49'4 0.3
2018-Feb-06 20:18N 31°17' E 121°45'415.1
2018-Feb-06 20:00N 31°14' E 121°48'1514.7
2018-Feb-06 19:00N 31°05' E 122°02'713.9
2018-Feb-06 18:30N 31°03' E 122°10'5 9.7
2018-Feb-06 18:00N 31°03' E 122°15'4 8.4
2018-Feb-06 17:29N 31°02' E 122°20'612.6
2018-Feb-06 17:00N 31°01' E 122°27'46014.2
2018-Feb-05 08:34N 24°11' E 118°31'614.7
2018-Feb-05 08:08N 24°08' E 118°25'214.6
2018-Feb-05 07:58N 24°07' E 118°23'815.3
2018-Feb-05 07:26N 24°01' E 118°16'  
Track history (hours):
 
Tides and Currents Weather Stations Pressure Air Temp Water Temp Dewpoint Dewpoint Depression Visibility Wind Speed Wind Dir Waves Ship Positions

Cbeh

Last reported at 2018-Feb-14 19:15 UTC. Time now 2018-Feb-25 09:57 UTC.
Position N 23°18' E 117°29'.
Warning: this ship's position is 10 days out of date.

Length 222 m; draft 5.4 m.

Type: Wing in ground effect craft. MMSI: 412228000.

Date/timePositionNaut miles runAvg speedWind from/ knotsBaromVisibWave heightAir tempDewpointWater temp
2018-Feb-14 19:15N 23°18' E 117°29'518.6
2018-Feb-14 19:00N 23°21' E 117°33'919.1
2018-Feb-14 18:30N 23°27' E 117°40'1019.2
2018-Feb-14 18:00N 23°34' E 117°48'918.9
2018-Feb-14 17:30N 23°40' E 117°55'1119.0
2018-Feb-14 16:56N 23°47' E 118°04'819.0
2018-Feb-14 16:30N 23°53' E 118°11'918.7
2018-Feb-14 16:00N 23°59' E 118°18'918.5
2018-Feb-14 15:30N 24°05' E 118°26'918.5
2018-Feb-14 15:00N 24°11' E 118°34'918.3
2018-Feb-14 14:30N 24°17' E 118°42'917.9
2018-Feb-14 14:00N 24°23' E 118°49'918.1
2018-Feb-14 13:30N 24°29' E 118°56'918.1
2018-Feb-14 13:00N 24°35' E 119°04'918.1
2018-Feb-14 12:30N 24°41' E 119°12'4317.5
2018-Feb-14 10:04N 25°09' E 119°46'217.3
2018-Feb-14 09:56N 25°11' E 119°48'917.2
2018-Feb-14 09:25N 25°17' E 119°56'717.0
2018-Feb-14 09:00N 25°23' E 119°58'817.3
2018-Feb-14 08:30N 25°31' E 120°01'917.3
2018-Feb-14 08:00N 25°39' E 120°06'1017.8
2018-Feb-14 07:25N 25°48' E 120°12'918.4
2018-Feb-14 06:57N 25°55' E 120°17'818.1
2018-Feb-14 06:30N 26°02' E 120°22'70516.7
2018-Feb-12 12:15N 37°42' E 122°04'519.2
2018-Feb-12 12:00N 37°43' E 121°59'918.9
2018-Feb-12 11:30N 37°47' E 121°47'918.9
2018-Feb-12 11:00N 37°49' E 121°36'1019.0
2018-Feb-12 10:30N 37°52' E 121°24'1019.0
2018-Feb-12 09:59N 37°55' E 121°12'  
2018-Feb-08 15:30N 37°55' E 121°20'917.5
2018-Feb-08 15:00N 37°53' E 121°31'917.5
2018-Feb-08 14:30N 37°51' E 121°42'917.5
2018-Feb-08 14:00N 37°48' E 121°52'39313.7
2018-Feb-07 09:25N 31°15' E 121°55'611.9
2018-Feb-07 08:56N 31°17' E 121°49'4 0.3
2018-Feb-06 20:18N 31°17' E 121°45'415.1
2018-Feb-06 20:00N 31°14' E 121°48'1514.7
2018-Feb-06 19:00N 31°05' E 122°02'713.9
2018-Feb-06 18:30N 31°03' E 122°10'5 9.7
2018-Feb-06 18:00N 31°03' E 122°15'4 8.4
2018-Feb-06 17:29N 31°02' E 122°20'612.6
2018-Feb-06 17:00N 31°01' E 122°27'46014.2
2018-Feb-05 08:34N 24°11' E 118°31'614.7
2018-Feb-05 08:08N 24°08' E 118°25'214.6
2018-Feb-05 07:58N 24°07' E 118°23'815.3
2018-Feb-05 07:26N 24°01' E 118°16'  

Dump ship's entire track history